Airfield :
LOGIN :

Register | Disclaimer

   EN    FR    IT 

 










Legend :    VFR   Marginal VFR   IFR   Intensive IFR   Very Intensive IFR
Visi :
Ceiling :
>= 8 km
>= 3000ft
5 to 8 km
1000 to 3000 ft
1500m to 5 km
500 to 1000 ft
800 to 1500m
200 to 500 ft
< 800m
< 200 ft
Symbols :   Thunderstorms  Fog  Heavy snow  Heavy precipitations  Wind > 20 kt
SIGMETs :     Misc.  Thunderstorms  Icing  Turbulence  Mountain Waves  Volcanic Ashes







- Airport Elevation : 1860 ft
- IATA code : GRX


LEGR - Granada

CURRENT METAR :
  • 170730Z 00000KT CAVOK 22/07 Q1021

EXPIRED METARs :
  • 170700Z 00000KT CAVOK 20/06 Q1021
  • 170630Z 00000KT CAVOK 19/06 Q1020
  • 170600Z 00000KT CAVOK 17/05 Q1020
  • 170530Z VRB01KT CAVOK 18/05 Q1020
  • 170500Z 23001KT CAVOK 18/06 Q1020

TAF TAF LEGR
Valid from the 17 at 03:00 until the 18 at 03:00 UTC


170200Z 1703/1803 VRB02KT CAVOK TX40/1716Z TN19/1706Z
BECMG 1711/1714 16011KT
BECMG 1719/1722 VRB02KT
No reported NOTAMs for that airfield.



MET'MAP, your aeronautical weather chart ! - Copyright ORBIFLY December 2007 - Disclaimer

ORBIFLY MET'MAP TEAM :

Programming & Development : Alexandra Zaïnal
Concept & Development : Baudouin d'Aumeries
Co-Development & Prog : Marc-Olivier Méhu
Technical & hardware support : Manuel Goepfert

Contact : metmap@orbifly.com




SOURCES & CREDITS :

   NOAA